Grande Mariner — WCY6594 — position and weather

sailwx.info

Track history (hours):
 
Tides and Currents Weather Stations Pressure Air Temp Water Temp Dewpoint Dewpoint Depression Visibility Wind Speed Wind Dir Waves Ship Positions

Grande Mariner

Owner: AMERICAN CANADIAN CARIBBEAN LINE INC, WARREN, RI. More information available from US FCC via Universal Licensing System and Coast Guard Vessel Documentation Center.

Last reported at 2017-Aug-21 01:10 UTC. Time now 2017-Aug-21 13:58 UTC.
Position N 45°50' W 085°48'.

Length 56 m; draft 2 m.

Type: Passenger vessel. MMSI: 369024000.

Date/timePositionNaut miles runAvg speedWind from/ knotsBaromVisibWave heightAir tempDewpointWater temp
2017-Aug-21 01:10N 45°50' W 085°48'3 9.3
2017-Aug-21 00:50N 45°51' W 085°44'4 9.5
2017-Aug-21 00:26N 45°52' W 085°39'5 9.7
2017-Aug-20 23:59N 45°54' W 085°33'510.2
2017-Aug-20 23:30N 45°53' W 085°26'510.2
2017-Aug-20 23:00N 45°52' W 085°19'510.0
2017-Aug-20 22:30N 45°52' W 085°11'510.0
2017-Aug-20 21:59N 45°51' W 085°04'510.3
2017-Aug-20 21:30N 45°50' W 084°57'510.2
2017-Aug-20 21:00N 45°50' W 084°50'510.1
2017-Aug-20 20:30N 45°49' W 084°43'4 8.7
2017-Aug-20 20:00N 45°51' W 084°37'0 0.0
2017-Aug-20 19:30N 45°51' W 084°37'0 0.0
2017-Aug-20 18:59N 45°51' W 084°37'0 0.0
2017-Aug-20 18:30N 45°51' W 084°37'0 0.0
2017-Aug-20 18:00N 45°51' W 084°37'0 0.0
2017-Aug-20 17:30N 45°51' W 084°37'0 0.0
2017-Aug-20 17:00N 45°51' W 084°37'0 0.0
2017-Aug-20 16:29N 45°51' W 084°37'0 0.0
2017-Aug-20 16:00N 45°51' W 084°37'0 0.0
2017-Aug-20 15:30N 45°51' W 084°37'0 0.0
2017-Aug-20 15:00N 45°51' W 084°37'0 0.0
2017-Aug-20 14:30N 45°51' W 084°37'0 0.0
2017-Aug-20 14:00N 45°51' W 084°37'0 0.0
2017-Aug-20 13:30N 45°51' W 084°37'0 0.0
2017-Aug-20 13:00N 45°51' W 084°37'0 0.7
2017-Aug-20 12:31N 45°51' W 084°37'5 9.4
2017-Aug-20 12:00N 45°52' W 084°43'0 0.3
2017-Aug-20 11:30N 45°52' W 084°43'0 1.0
2017-Aug-20 11:00N 45°52' W 084°43'4 8.5
2017-Aug-20 10:31N 45°51' W 084°37'0 0.2
2017-Aug-20 10:00N 45°51' W 084°37'0 0.0
2017-Aug-20 09:30N 45°51' W 084°37'0 0.0
2017-Aug-20 09:00N 45°51' W 084°37'0 0.0
2017-Aug-20 08:30N 45°51' W 084°37'0 0.0
2017-Aug-20 08:00N 45°51' W 084°37'0 0.0
2017-Aug-20 07:30N 45°51' W 084°37'0 0.0
2017-Aug-20 07:00N 45°51' W 084°37'0 0.0
2017-Aug-20 06:30N 45°51' W 084°37'0 0.0
2017-Aug-20 06:00N 45°51' W 084°37'0 0.0
2017-Aug-20 05:30N 45°51' W 084°37'0 0.0
2017-Aug-20 05:00N 45°51' W 084°37'0 0.0
2017-Aug-20 04:30N 45°51' W 084°37'0 0.0
2017-Aug-20 04:00N 45°51' W 084°37'0 0.0
2017-Aug-20 03:30N 45°51' W 084°37'0 0.0
2017-Aug-20 03:00N 45°51' W 084°37'0 0.0
2017-Aug-20 02:30N 45°51' W 084°37'0 0.0
2017-Aug-20 02:00N 45°51' W 084°37'0 0.0
2017-Aug-20 01:30N 45°51' W 084°37'0 0.0
2017-Aug-20 01:00N 45°51' W 084°37'0 0.0
2017-Aug-20 00:30N 45°51' W 084°37'0 0.0
2017-Aug-20 00:00N 45°51' W 084°37'0 0.0
2017-Aug-19 23:30N 45°51' W 084°37'0 0.0
2017-Aug-19 23:00N 45°51' W 084°37'0 0.0
2017-Aug-19 22:30N 45°51' W 084°37'0 0.0
2017-Aug-19 22:00N 45°51' W 084°37'0 0.0
2017-Aug-19 21:30N 45°51' W 084°37'0 0.0
2017-Aug-19 21:00N 45°51' W 084°37'0 0.0
2017-Aug-19 20:30N 45°51' W 084°37'0 0.0
2017-Aug-19 20:00N 45°51' W 084°37'0 0.0
2017-Aug-19 19:30N 45°51' W 084°37'0 0.0
2017-Aug-19 19:00N 45°51' W 084°37'0 0.0
2017-Aug-19 18:29N 45°51' W 084°37'0 0.0
2017-Aug-19 18:00N 45°51' W 084°37'0 0.0
2017-Aug-19 17:30N 45°51' W 084°37'0 0.0
2017-Aug-19 17:00N 45°51' W 084°37'0 0.0
2017-Aug-19 16:30N 45°51' W 084°37'0 0.0
2017-Aug-19 16:00N 45°51' W 084°37'0 0.0
2017-Aug-19 15:30N 45°51' W 084°37'0 0.0
2017-Aug-19 14:59N 45°51' W 084°37'0 0.0
2017-Aug-19 14:00N 45°51' W 084°37'0 0.0
2017-Aug-19 13:30N 45°51' W 084°37'2 3.5
2017-Aug-19 12:59N 45°50' W 084°39'510.4
2017-Aug-19 12:30N 45°49' W 084°46'510.6
2017-Aug-19 12:00N 45°50' W 084°54'510.5
2017-Aug-19 11:29N 45°50' W 085°02'  
2017-Aug-11 07:25N 45°52' W 085°49'410.2
2017-Aug-11 07:00N 45°52' W 085°43'510.0
2017-Aug-11 06:30N 45°53' W 085°36'510.4
2017-Aug-11 06:00N 45°53' W 085°29'510.5
2017-Aug-11 05:29N 45°52' W 085°21'510.6
2017-Aug-11 05:00N 45°52' W 085°13'510.4
2017-Aug-11 04:30N 45°51' W 085°06'510.6
2017-Aug-11 04:00N 45°51' W 084°59'510.5
2017-Aug-11 03:30N 45°50' W 084°51'510.4
2017-Aug-11 03:00N 45°49' W 084°44'510.0
2017-Aug-11 02:30N 45°51' W 084°37'0 0.6
2017-Aug-11 02:00N 45°51' W 084°37'0 0.0
2017-Aug-11 01:30N 45°51' W 084°37'  
Track history (hours):
 
Tides and Currents Weather Stations Pressure Air Temp Water Temp Dewpoint Dewpoint Depression Visibility Wind Speed Wind Dir Waves Ship Positions

Grande Mariner

Owner: AMERICAN CANADIAN CARIBBEAN LINE INC, WARREN, RI. More information available from US FCC via Universal Licensing System and Coast Guard Vessel Documentation Center.

Last reported at 2017-Aug-21 01:10 UTC. Time now 2017-Aug-21 13:58 UTC.
Position N 45°50' W 085°48'.

Length 56 m; draft 2 m.

Type: Passenger vessel. MMSI: 369024000.

Date/timePositionNaut miles runAvg speedWind from/ knotsBaromVisibWave heightAir tempDewpointWater temp
2017-Aug-21 01:10N 45°50' W 085°48'3 9.3
2017-Aug-21 00:50N 45°51' W 085°44'4 9.5
2017-Aug-21 00:26N 45°52' W 085°39'5 9.7
2017-Aug-20 23:59N 45°54' W 085°33'510.2
2017-Aug-20 23:30N 45°53' W 085°26'510.2
2017-Aug-20 23:00N 45°52' W 085°19'510.0
2017-Aug-20 22:30N 45°52' W 085°11'510.0
2017-Aug-20 21:59N 45°51' W 085°04'510.3
2017-Aug-20 21:30N 45°50' W 084°57'510.2
2017-Aug-20 21:00N 45°50' W 084°50'510.1
2017-Aug-20 20:30N 45°49' W 084°43'4 8.7
2017-Aug-20 20:00N 45°51' W 084°37'0 0.0
2017-Aug-20 19:30N 45°51' W 084°37'0 0.0
2017-Aug-20 18:59N 45°51' W 084°37'0 0.0
2017-Aug-20 18:30N 45°51' W 084°37'0 0.0
2017-Aug-20 18:00N 45°51' W 084°37'0 0.0
2017-Aug-20 17:30N 45°51' W 084°37'0 0.0
2017-Aug-20 17:00N 45°51' W 084°37'0 0.0
2017-Aug-20 16:29N 45°51' W 084°37'0 0.0
2017-Aug-20 16:00N 45°51' W 084°37'0 0.0
2017-Aug-20 15:30N 45°51' W 084°37'0 0.0
2017-Aug-20 15:00N 45°51' W 084°37'0 0.0
2017-Aug-20 14:30N 45°51' W 084°37'0 0.0
2017-Aug-20 14:00N 45°51' W 084°37'0 0.0
2017-Aug-20 13:30N 45°51' W 084°37'0 0.0
2017-Aug-20 13:00N 45°51' W 084°37'0 0.7
2017-Aug-20 12:31N 45°51' W 084°37'5 9.4
2017-Aug-20 12:00N 45°52' W 084°43'0 0.3
2017-Aug-20 11:30N 45°52' W 084°43'0 1.0
2017-Aug-20 11:00N 45°52' W 084°43'4 8.5
2017-Aug-20 10:31N 45°51' W 084°37'0 0.2
2017-Aug-20 10:00N 45°51' W 084°37'0 0.0
2017-Aug-20 09:30N 45°51' W 084°37'0 0.0
2017-Aug-20 09:00N 45°51' W 084°37'0 0.0
2017-Aug-20 08:30N 45°51' W 084°37'0 0.0
2017-Aug-20 08:00N 45°51' W 084°37'0 0.0
2017-Aug-20 07:30N 45°51' W 084°37'0 0.0
2017-Aug-20 07:00N 45°51' W 084°37'0 0.0
2017-Aug-20 06:30N 45°51' W 084°37'0 0.0
2017-Aug-20 06:00N 45°51' W 084°37'0 0.0
2017-Aug-20 05:30N 45°51' W 084°37'0 0.0
2017-Aug-20 05:00N 45°51' W 084°37'0 0.0
2017-Aug-20 04:30N 45°51' W 084°37'0 0.0
2017-Aug-20 04:00N 45°51' W 084°37'0 0.0
2017-Aug-20 03:30N 45°51' W 084°37'0 0.0
2017-Aug-20 03:00N 45°51' W 084°37'0 0.0
2017-Aug-20 02:30N 45°51' W 084°37'0 0.0
2017-Aug-20 02:00N 45°51' W 084°37'0 0.0
2017-Aug-20 01:30N 45°51' W 084°37'0 0.0
2017-Aug-20 01:00N 45°51' W 084°37'0 0.0
2017-Aug-20 00:30N 45°51' W 084°37'0 0.0
2017-Aug-20 00:00N 45°51' W 084°37'0 0.0
2017-Aug-19 23:30N 45°51' W 084°37'0 0.0
2017-Aug-19 23:00N 45°51' W 084°37'0 0.0
2017-Aug-19 22:30N 45°51' W 084°37'0 0.0
2017-Aug-19 22:00N 45°51' W 084°37'0 0.0
2017-Aug-19 21:30N 45°51' W 084°37'0 0.0
2017-Aug-19 21:00N 45°51' W 084°37'0 0.0
2017-Aug-19 20:30N 45°51' W 084°37'0 0.0
2017-Aug-19 20:00N 45°51' W 084°37'0 0.0
2017-Aug-19 19:30N 45°51' W 084°37'0 0.0
2017-Aug-19 19:00N 45°51' W 084°37'0 0.0
2017-Aug-19 18:29N 45°51' W 084°37'0 0.0
2017-Aug-19 18:00N 45°51' W 084°37'0 0.0
2017-Aug-19 17:30N 45°51' W 084°37'0 0.0
2017-Aug-19 17:00N 45°51' W 084°37'0 0.0
2017-Aug-19 16:30N 45°51' W 084°37'0 0.0
2017-Aug-19 16:00N 45°51' W 084°37'0 0.0
2017-Aug-19 15:30N 45°51' W 084°37'0 0.0
2017-Aug-19 14:59N 45°51' W 084°37'0 0.0
2017-Aug-19 14:00N 45°51' W 084°37'0 0.0
2017-Aug-19 13:30N 45°51' W 084°37'2 3.5
2017-Aug-19 12:59N 45°50' W 084°39'510.4
2017-Aug-19 12:30N 45°49' W 084°46'510.6
2017-Aug-19 12:00N 45°50' W 084°54'510.5
2017-Aug-19 11:29N 45°50' W 085°02'  
2017-Aug-11 07:25N 45°52' W 085°49'410.2
2017-Aug-11 07:00N 45°52' W 085°43'510.0
2017-Aug-11 06:30N 45°53' W 085°36'510.4
2017-Aug-11 06:00N 45°53' W 085°29'510.5
2017-Aug-11 05:29N 45°52' W 085°21'510.6
2017-Aug-11 05:00N 45°52' W 085°13'510.4
2017-Aug-11 04:30N 45°51' W 085°06'510.6
2017-Aug-11 04:00N 45°51' W 084°59'510.5
2017-Aug-11 03:30N 45°50' W 084°51'510.4
2017-Aug-11 03:00N 45°49' W 084°44'510.0
2017-Aug-11 02:30N 45°51' W 084°37'0 0.6
2017-Aug-11 02:00N 45°51' W 084°37'0 0.0
2017-Aug-11 01:30N 45°51' W 084°37'  

Dump ship's entire track history